Windom, Indiana
Current Conditions -  °F | °C
As of 2:35 PM on Saturday 20 Dec 2014 (Local Time) from KDCY Reporting Station
Overcast Overcast  
Wind Chill: 34°   Ceiling: 7000
Heat Index: 34°   Visibility: 10mi
Dew Point: 24°   Wind: 3mph
Humidity: 68%   Direction: 50°NE
Pressure: 30.26"   Gusts: NA
Location:  38.6262°N, 86.7615°W
Report Text: KDCY 202035Z AUTO 05003KT 10SM SCT018 OVC070 01/M04 A3026 RMK AO2 T00101043
Loading
Personal Weather Stations






























Interactive Weather Map New forecast layout! Learn more

10-Day Weather Forecast

Advertisements
Track Severe Weather on mobile